| time (UTC) | temp C | wind direction | speed KPH | gust KPH | rain 1hr cm | rain 24hr cm | rain mn cm | humidity % | barometer mb |
| 20260507231539 | 10 | 187 | 12.9 | 20.9 | 0.00 | 0.00 | 0.00 | 80 | 1012.4 |
| 20260507230038 | 10 | 203 | 16.1 | 22.5 | 0.00 | 0.00 | 0.00 | 79 | 1012.3 |
| 20260507224536 | 10 | 195 | 14.5 | 25.7 | 0.00 | 0.00 | 0.00 | 79 | 1012.3 |
| 20260507223046 | 10 | 194 | 14.5 | 24.1 | 0.00 | 0.00 | 0.00 | 78 | 1012.2 |
| 20260507221536 | 10 | 196 | 12.9 | 24.1 | 0.00 | 0.00 | 0.00 | 78 | 1012.2 |
| 20260507220038 | 10 | 199 | 19.3 | 29.0 | 0.00 | 0.00 | 0.00 | 78 | 1012.1 |
| 20260507214533 | 10 | 215 | 14.5 | 22.5 | 0.00 | 0.00 | 0.00 | 77 | 1012.1 |
| 20260507213034 | 10 | 208 | 16.1 | 25.7 | 0.00 | 0.00 | 0.00 | 77 | 1012.0 |
| 20260507211540 | 10 | 189 | 16.1 | 24.1 | 0.00 | 0.00 | 0.00 | 76 | 1012.1 |
| 20260507210038 | 11 | 193 | 12.9 | 17.7 | 0.00 | 0.00 | 0.00 | 75 | 1012.0 |
| 20260507204536 | 11 | 208 | 14.5 | 19.3 | 0.00 | 0.00 | 0.00 | 74 | 1012.0 |
| 20260507203031 | 11 | 195 | 11.3 | 16.1 | 0.00 | 0.00 | 0.00 | 73 | 1011.9 |
| 20260507201530 | 11 | 220 | 11.3 | 19.3 | 0.00 | 0.00 | 0.00 | 72 | 1011.8 |
| 20260507200031 | 11 | 208 | 9.7 | 17.7 | 0.00 | 0.00 | 0.00 | 73 | 1011.6 |
| 20260507194545 | 11 | 189 | 9.7 | 14.5 | 0.00 | 0.00 | 0.00 | 72 | 1011.5 |
| 20260507193030 | 12 | 199 | 11.3 | 16.1 | 0.00 | 0.00 | 0.00 | 72 | 1011.4 |
| 20260507191528 | 12 | 206 | 4.8 | 14.5 | 0.00 | 0.00 | 0.00 | 72 | 1011.3 |
| 20260507190040 | 12 | 203 | 6.4 | 12.9 | 0.00 | 0.00 | 0.00 | 72 | 1011.2 |
| 20260507184538 | 12 | 189 | 4.8 | 11.3 | 0.00 | 0.00 | 0.00 | 73 | 1011.2 |
| 20260507183030 | 12 | 184 | 8.0 | 16.1 | 0.00 | 0.00 | 0.00 | 71 | 1011.0 |
| 20260507181526 | 12 | 214 | 4.8 | 11.3 | 0.00 | 0.00 | 0.00 | 71 | 1010.9 |
| 20260507180028 | 12 | 222 | 3.2 | 14.5 | 0.00 | 0.00 | 0.00 | 71 | 1010.9 |
| 20260507174532 | 12 | 258 | 11.3 | 16.1 | 0.00 | 0.00 | 0.00 | 72 | 1010.9 |
| 20260507173040 | 12 | 226 | 6.4 | 12.9 | 0.00 | 0.00 | 0.00 | 73 | 1011.0 |
| 20260507171524 | 12 | 211 | 8.0 | 16.1 | 0.00 | 0.00 | 0.00 | 74 | 1011.0 |
| 20260507170024 | 12 | 209 | 9.7 | 19.3 | 0.00 | 0.00 | 0.00 | 75 | 1011.0 |
| 20260507164533 | 12 | 210 | 8.0 | 16.1 | 0.00 | 0.00 | 0.00 | 75 | 1011.0 |
| 20260507163025 | 12 | 214 | 9.7 | 17.7 | 0.00 | 0.00 | 0.00 | 74 | 1010.9 |
| 20260507161523 | 12 | 192 | 14.5 | 25.7 | 0.00 | 0.00 | 0.00 | 70 | 1011.0 |
| 20260507160026 | 13 | 185 | 17.7 | 30.6 | 0.00 | 0.00 | 0.00 | 70 | 1011.1 |
| 20260507154521 | 12 | 210 | 14.5 | 22.5 | 0.00 | 0.00 | 0.00 | 72 | 1011.1 |
| 20260507153026 | 12 | 98 | 4.8 | 11.3 | 0.00 | 0.00 | 0.00 | 75 | 1011.1 |
| 20260507151519 | 12 | 86 | 6.4 | 11.3 | 0.00 | 0.00 | 0.00 | 78 | 1011.2 |
| 20260507150018 | 11 | 119 | 3.2 | 6.4 | 0.00 | 0.00 | 0.00 | 79 | 1011.2 |
| 20260507144517 | 12 | 109 | 3.2 | 4.8 | 0.00 | 0.00 | 0.00 | 80 | 1011.4 |
| 20260507143022 | 11 | 104 | 0.0 | 6.4 | 0.00 | 0.00 | 0.00 | 80 | 1011.4 |
| 20260507141519 | 12 | 62 | 6.4 | 8.0 | 0.00 | 0.00 | 0.00 | 81 | 1011.7 |
| 20260507140020 | 12 | 24 | 1.6 | 3.2 | 0.00 | 0.00 | 0.00 | 80 | 1011.7 |
| 20260507134515 | 12 | 16 | 1.6 | 4.8 | 0.00 | 0.00 | 0.00 | 80 | 1011.5 |
| 20260507133015 | 12 | 33 | 3.2 | 8.0 | 0.00 | 0.00 | 0.00 | 80 | 1011.6 |
| 20260507131518 | 12 | 359 | 6.4 | 8.0 | 0.00 | 0.00 | 0.00 | 78 | 1011.7 |
| 20260507130013 | 12 | 359 | 3.2 | 8.0 | 0.00 | 0.00 | 0.00 | 77 | 1011.6 |
| 20260507124519 | 12 | 359 | 4.8 | 9.7 | 0.00 | 0.00 | 0.00 | 77 | 1011.6 |
| 20260507123014 | 12 | 343 | 3.2 | 8.0 | 0.00 | 0.00 | 0.00 | 74 | 1011.7 |
| 20260507121514 | 13 | 338 | 6.4 | 12.9 | 0.00 | 0.00 | 0.00 | 73 | 1011.6 |
| 20260507120011 | 13 | 359 | 6.4 | 12.9 | 0.00 | 0.00 | 0.00 | 71 | 1011.7 |
| 20260507114511 | 15 | 254 | 3.2 | 16.1 | 0.00 | 0.00 | 0.00 | 65 | 1011.7 |
| 20260507113024 | 14 | 213 | 3.2 | 11.3 | 0.00 | 0.00 | 0.00 | 68 | 1011.6 |
| 20260507111504 | 13 | 213 | 8.0 | 16.1 | 0.00 | 0.00 | 0.00 | 69 | 1011.7 |
| 20260507110004 | 13 | 212 | 6.4 | 11.3 | 0.00 | 0.00 | 0.00 | 69 | 1011.8 |
| 20260507104559 | 13 | 201 | 9.7 | 16.1 | 0.00 | 0.00 | 0.00 | 70 | 1011.9 |
| 20260507103058 | 12 | 193 | 12.9 | 17.7 | 0.00 | 0.00 | 0.00 | 70 | 1011.9 |
| 20260507101554 | 12 | 174 | 14.5 | 24.1 | 0.00 | 0.00 | 0.00 | 71 | 1011.9 |
| 20260507100051 | 12 | 195 | 6.4 | 14.5 | 0.00 | 0.00 | 0.00 | 70 | 1012.0 |
| 20260507094547 | 12 | 191 | 4.8 | 16.1 | 0.00 | 0.00 | 0.00 | 70 | 1012.0 |
| 20260507093042 | 12 | 218 | 8.0 | 17.7 | 0.00 | 0.00 | 0.00 | 71 | 1011.9 |
| 20260507091542 | 12 | 231 | 6.4 | 14.5 | 0.00 | 0.00 | 0.00 | 73 | 1012.0 |
| 20260507090035 | 11 | 224 | 4.8 | 12.9 | 0.00 | 0.00 | 0.00 | 76 | 1011.9 |
| 20260507084542 | 10 | 193 | 11.3 | 19.3 | 0.00 | 0.00 | 0.00 | 74 | 1011.8 |
| 20260507083035 | 11 | 193 | 16.1 | 24.1 | 0.00 | 0.00 | 0.00 | 73 | 1011.7 |
| 20260507081538 | 11 | 223 | 9.7 | 17.7 | 0.00 | 0.00 | 0.00 | 74 | 1011.9 |
| 20260507080030 | 10 | 185 | 8.0 | 17.7 | 0.00 | 0.00 | 0.00 | 75 | 1011.9 |
| 20260507074530 | 10 | 215 | 3.2 | 12.9 | 0.00 | 0.00 | 0.00 | 77 | 1011.9 |
| 20260507073025 | 10 | 173 | 8.0 | 12.9 | 0.00 | 0.00 | 0.00 | 78 | 1011.7 |
| 20260507071522 | 9 | 175 | 9.7 | 16.1 | 0.00 | 0.00 | 0.00 | 78 | 1011.7 |
| 20260507070021 | 9 | 195 | 12.9 | 19.3 | 0.00 | 0.00 | 0.00 | 78 | 1011.6 |
| 20260507064521 | 9 | 193 | 14.5 | 20.9 | 0.00 | 0.00 | 0.00 | 78 | 1011.6 |
| 20260507063024 | 9 | 193 | 14.5 | 20.9 | 0.00 | 0.00 | 0.00 | 78 | 1011.6 |
| 20260507061519 | 9 | 203 | 9.7 | 14.5 | 0.00 | 0.00 | 0.00 | 78 | 1011.7 |
| 20260507060018 | 9 | 189 | 12.9 | 17.7 | 0.00 | 0.00 | 0.00 | 79 | 1011.6 |
| 20260507054517 | 8 | 193 | 9.7 | 24.1 | 0.00 | 0.00 | 0.00 | 79 | 1011.6 |
| 20260507053015 | 8 | 193 | 9.7 | 17.7 | 0.00 | 0.00 | 0.00 | 78 | 1011.6 |
| 20260507051515 | 8 | 214 | 9.7 | 16.1 | 0.00 | 0.00 | 0.00 | 78 | 1011.5 |
| 20260507050023 | 8 | 193 | 8.0 | 24.1 | 0.00 | 0.00 | 0.00 | 78 | 1011.5 |
| 20260507044514 | 8 | 191 | 14.5 | 24.1 | 0.00 | 0.00 | 0.00 | 79 | 1011.4 |
| 20260507043021 | 8 | 183 | 16.1 | 25.7 | 0.00 | 0.00 | 0.00 | 79 | 1011.4 |
| 20260507041512 | 8 | 185 | 12.9 | 20.9 | 0.00 | 0.00 | 0.00 | 78 | 1011.5 |
| 20260507040011 | 8 | 197 | 14.5 | 29.0 | 0.00 | 0.00 | 0.00 | 78 | 1011.4 |
| 20260507034519 | 8 | 187 | 19.3 | 25.7 | 0.00 | 0.00 | 0.00 | 78 | 1011.3 |
| 20260507033009 | 8 | 199 | 20.9 | 27.4 | 0.00 | 0.00 | 0.00 | 78 | 1011.4 |
| 20260507031507 | 8 | 190 | 12.9 | 19.3 | 0.00 | 0.00 | 0.00 | 78 | 1011.4 |
| 20260507030008 | 8 | 183 | 14.5 | 20.9 | 0.00 | 0.00 | 0.00 | 77 | 1011.4 |
| 20260507024513 | 8 | 183 | 16.1 | 24.1 | 0.00 | 0.00 | 0.00 | 77 | 1011.4 |
| 20260507023008 | 8 | 185 | 12.9 | 22.5 | 0.00 | 0.00 | 0.00 | 76 | 1011.5 |
| 20260507021503 | 8 | 187 | 14.5 | 24.1 | 0.00 | 0.00 | 0.00 | 76 | 1011.5 |
| 20260507020004 | 8 | 187 | 17.7 | 27.4 | 0.00 | 0.00 | 0.00 | 76 | 1011.5 |
| 20260507014502 | 8 | 194 | 17.7 | 29.0 | 0.00 | 0.00 | 0.00 | 76 | 1011.6 |
| 20260507013001 | 8 | 166 | 17.7 | 24.1 | 0.00 | 0.00 | 0.00 | 76 | 1011.5 |
| 20260507011601 | 8 | 187 | 17.7 | 25.7 | 0.00 | 0.00 | 0.00 | 75 | 1011.6 |
| 20260507010057 | 8 | 190 | 16.1 | 22.5 | 0.00 | 0.00 | 0.00 | 75 | 1011.6 |
| 20260507004554 | 8 | 187 | 14.5 | 22.5 | 0.00 | 0.00 | 0.00 | 74 | 1011.7 |
| 20260507003106 | 8 | 193 | 16.1 | 24.1 | 0.00 | 0.00 | 0.00 | 75 | 1011.8 |
| 20260507001611 | 8 | 191 | 12.9 | 19.3 | 0.00 | 0.00 | 0.00 | 75 | 1011.9 |
| 20260507000050 | 8 | 184 | 14.5 | 19.3 | 0.00 | 0.00 | 0.00 | 75 | 1012.0 |
| 20260506234553 | 8 | 212 | 11.3 | 16.1 | 0.00 | 0.00 | 0.00 | 76 | 1012.1 |
| 20260506233045 | 8 | 220 | 11.3 | 19.3 | 0.00 | 0.00 | 0.00 | 76 | 1011.9 |